createdAt,value
2018-02-19T00:01:29.297Z,16.87
2018-02-19T00:03:56.917Z,15.70
2018-02-19T00:06:25.256Z,16.33
2018-02-19T00:08:52.827Z,16.47
2018-02-19T00:11:22.443Z,16.03
2018-02-19T00:13:50.009Z,16.13
2018-02-19T00:16:17.587Z,17.80
2018-02-19T00:18:45.948Z,17.33
2018-02-19T00:21:13.520Z,16.53
2018-02-19T00:23:41.096Z,17.53
2018-02-19T00:26:09.455Z,16.13
2018-02-19T00:28:37.022Z,16.53
2018-02-19T00:31:05.384Z,16.53
2018-02-19T00:33:32.950Z,17.10
2018-02-19T00:36:01.333Z,17.23
2018-02-19T00:38:28.901Z,16.80
2018-02-19T00:40:57.272Z,17.40
2018-02-19T00:43:24.841Z,19.00
2018-02-19T00:45:53.260Z,19.00
2018-02-19T00:48:20.852Z,18.30
2018-02-19T00:50:48.442Z,18.90
2018-02-19T00:53:16.783Z,18.13
2018-02-19T00:55:44.450Z,19.57
2018-02-19T00:58:12.085Z,18.20
2018-02-19T01:00:39.670Z,18.10
2018-02-19T01:03:07.230Z,18.50
2018-02-19T01:05:35.090Z,18.73
2018-02-19T01:08:02.679Z,18.50
2018-02-19T01:10:30.301Z,18.87
2018-02-19T01:12:57.858Z,18.90
2018-02-19T01:15:25.437Z,17.87
2018-02-19T01:17:52.989Z,18.57
2018-02-19T01:20:20.550Z,18.17
2018-02-19T01:22:48.112Z,18.70
2018-02-19T01:25:15.702Z,17.77
2018-02-19T01:27:44.059Z,17.40
2018-02-19T01:30:11.647Z,16.70
2018-02-19T01:32:40.007Z,17.67
2018-02-19T01:35:07.589Z,16.83
2018-02-19T01:37:35.167Z,17.07
2018-02-19T01:40:02.761Z,18.50
2018-02-19T01:42:30.353Z,16.57
2018-02-19T01:44:57.947Z,16.90
2018-02-19T01:47:25.524Z,16.77
2018-02-19T01:50:06.026Z,14.80
2018-02-19T01:52:33.600Z,17.10
2018-02-19T01:55:01.954Z,16.40
2018-02-19T01:57:29.551Z,16.67
2018-02-19T01:59:57.888Z,16.07
2018-02-19T02:02:25.506Z,16.00
2018-02-19T02:04:53.096Z,15.77
2018-02-19T02:07:20.655Z,16.90
2018-02-19T02:09:48.243Z,16.23
2018-02-19T02:12:15.826Z,17.67
2018-02-19T02:14:44.155Z,15.60
2018-02-19T02:17:12.506Z,17.17
2018-02-19T02:19:40.104Z,16.93
2018-02-19T02:22:07.682Z,15.23
2018-02-19T02:24:35.281Z,17.30
2018-02-19T02:27:02.959Z,18.50
2018-02-19T02:29:30.587Z,17.90
2018-02-19T02:31:58.189Z,16.73
2018-02-19T02:34:25.769Z,19.70
2018-02-19T02:36:53.345Z,16.57
2018-02-19T02:39:20.916Z,17.27
2018-02-19T02:41:49.267Z,17.73
2018-02-19T02:44:16.836Z,17.20
2018-02-19T02:46:44.457Z,17.80
2018-02-19T02:49:12.038Z,17.43
2018-02-19T02:51:39.594Z,17.00
2018-02-19T02:54:07.183Z,18.83
2018-02-19T02:56:34.780Z,17.30
2018-02-19T02:59:02.409Z,16.67
2018-02-19T03:01:29.981Z,17.80
2018-02-19T03:03:58.311Z,18.47
2018-02-19T03:06:25.906Z,18.80
2018-02-19T03:08:53.486Z,19.53
2018-02-19T03:11:21.832Z,19.50
2018-02-19T03:13:49.441Z,20.70
2018-02-19T03:16:17.023Z,20.30
2018-02-19T03:18:44.627Z,20.27
2018-02-19T03:21:12.967Z,20.00
2018-02-19T03:23:40.537Z,20.40
2018-02-19T03:26:08.102Z,20.07
2018-02-19T03:28:35.691Z,21.53
2018-02-19T03:31:04.045Z,18.40
2018-02-19T03:33:31.655Z,18.87
2018-02-19T03:35:59.226Z,16.83
2018-02-19T03:38:26.819Z,17.17
2018-02-19T03:40:54.454Z,18.23
2018-02-19T03:43:22.023Z,17.80
2018-02-19T03:45:49.611Z,16.13
2018-02-19T03:48:17.208Z,17.57
2018-02-19T03:50:44.807Z,16.00
2018-02-19T03:53:12.380Z,18.70
2018-02-19T03:55:39.968Z,18.67
2018-02-19T03:58:08.327Z,21.80
2018-02-19T04:00:35.891Z,20.30
2018-02-19T04:03:03.481Z,18.20
2018-02-19T04:05:31.820Z,17.83
2018-02-19T04:07:59.428Z,17.37
2018-02-19T04:10:27.025Z,17.17
2018-02-19T04:12:54.640Z,18.10
2018-02-19T04:15:22.978Z,19.47
2018-02-19T04:17:50.571Z,18.00
2018-02-19T04:20:18.924Z,18.73
2018-02-19T04:22:46.532Z,22.23
2018-02-19T04:25:14.120Z,20.43
2018-02-19T04:27:41.699Z,20.50
2018-02-19T04:30:09.300Z,19.77
2018-02-19T04:32:37.658Z,18.33
2018-02-19T04:35:05.992Z,18.93
2018-02-19T04:37:33.636Z,18.90
2018-02-19T04:40:01.210Z,19.00
2018-02-19T04:42:28.777Z,20.73
2018-02-19T04:44:58.184Z,20.53
2018-02-19T04:47:25.800Z,21.30
2018-02-19T04:49:53.381Z,20.63
2018-02-19T04:52:20.959Z,19.17
2018-02-19T04:54:48.567Z,22.20
2018-02-19T04:57:16.894Z,20.30
2018-02-19T04:59:44.473Z,20.40
2018-02-19T05:02:12.053Z,21.23
2018-02-19T05:04:39.619Z,20.70
2018-02-19T05:07:07.256Z,22.07
2018-02-19T05:09:34.827Z,21.37
2018-02-19T05:12:02.400Z,19.80
2018-02-19T05:14:30.750Z,21.07
2018-02-19T05:16:58.344Z,20.03
2018-02-19T05:19:26.804Z,20.57
2018-02-19T05:21:54.372Z,19.50
2018-02-19T05:24:21.960Z,29.20
2018-02-19T05:26:50.291Z,19.43
2018-02-19T05:29:17.879Z,21.80
2018-02-19T05:31:46.214Z,18.53
2018-02-19T05:34:13.806Z,22.30
2018-02-19T05:36:41.370Z,20.20
2018-02-19T05:39:08.934Z,20.57
2018-02-19T05:41:37.293Z,35.60
2018-02-19T05:44:04.853Z,18.23
2018-02-19T05:46:32.462Z,18.17
2018-02-19T05:49:00.023Z,17.83
2018-02-19T05:51:27.600Z,19.40
2018-02-19T05:53:55.182Z,18.87
2018-02-19T05:56:22.741Z,22.03
2018-02-19T05:58:50.334Z,19.03
2018-02-19T06:01:18.671Z,19.07
2018-02-19T06:03:46.280Z,20.67
2018-02-19T06:06:14.623Z,16.03
2018-02-19T06:08:42.184Z,19.03
2018-02-19T06:11:09.771Z,19.70
2018-02-19T06:13:38.144Z,25.40
2018-02-19T06:16:05.722Z,18.37
2018-02-19T06:18:34.056Z,16.17
2018-02-19T06:21:01.635Z,17.90
2018-02-19T06:23:29.200Z,20.67
2018-02-19T06:25:57.648Z,18.90
2018-02-19T06:28:25.219Z,21.07
2018-02-19T06:30:52.820Z,18.63
2018-02-19T06:33:21.159Z,19.70
2018-02-19T06:35:48.766Z,26.40
2018-02-19T06:38:16.355Z,20.13
2018-02-19T06:40:43.917Z,21.37
2018-02-19T06:43:11.509Z,20.43
2018-02-19T06:45:39.087Z,20.23
2018-02-19T06:48:07.550Z,20.90
2018-02-19T06:50:35.929Z,21.37
2018-02-19T06:53:03.499Z,22.23
2018-02-19T06:55:31.871Z,23.60
2018-02-19T06:57:59.440Z,21.67
2018-02-19T07:00:27.787Z,19.90
2018-02-19T07:02:55.387Z,20.70
2018-02-19T07:05:23.766Z,19.30
2018-02-19T07:07:52.103Z,22.13
2018-02-19T07:10:19.671Z,21.40
2018-02-19T07:12:47.267Z,21.40
2018-02-19T07:15:15.604Z,19.27
2018-02-19T07:17:43.191Z,19.40
2018-02-19T07:20:11.551Z,19.97
2018-02-19T07:22:39.138Z,20.83
2018-02-19T07:25:07.534Z,20.63
2018-02-19T07:27:35.111Z,21.07
2018-02-19T07:30:02.698Z,19.03
2018-02-19T07:32:30.258Z,18.20
2018-02-19T07:34:57.882Z,20.73
2018-02-19T07:37:25.452Z,21.97
2018-02-19T07:39:53.028Z,20.73
2018-02-19T07:42:20.631Z,22.07
2018-02-19T07:44:48.983Z,24.30
2018-02-19T07:47:16.543Z,19.07
2018-02-19T07:49:44.139Z,19.30
2018-02-19T08:35:53.239Z,20.00
2018-02-19T08:38:20.801Z,19.23
2018-02-19T08:40:48.367Z,18.40
2018-02-19T08:43:16.718Z,20.53
2018-02-19T08:45:44.278Z,19.47
2018-02-19T08:48:11.868Z,20.10
2018-02-19T08:50:40.218Z,19.80
2018-02-19T08:53:07.844Z,19.67
2018-02-19T08:55:35.428Z,18.13
2018-02-19T08:58:03.006Z,17.93
2018-02-19T09:00:30.595Z,22.70
2018-02-19T09:02:58.923Z,20.27
2018-02-19T09:05:26.515Z,19.63
2018-02-19T09:07:54.089Z,19.27
2018-02-19T09:10:22.421Z,19.80
2018-02-19T09:12:50.025Z,19.90
2018-02-19T09:15:18.349Z,22.73
2018-02-19T09:17:45.960Z,20.53
2018-02-19T09:20:14.294Z,20.73
2018-02-19T09:22:41.986Z,21.20
2018-02-19T09:25:10.485Z,18.80
2018-02-19T09:27:38.094Z,20.10
2018-02-19T09:30:05.675Z,20.67
2018-02-19T09:32:33.239Z,19.50
2018-02-19T09:35:01.627Z,19.77
2018-02-19T09:37:29.184Z,22.50
2018-02-19T09:39:56.778Z,19.47
2018-02-19T09:42:24.360Z,21.77
2018-02-19T09:44:51.928Z,21.60
2018-02-19T09:47:19.540Z,20.93
2018-02-19T09:49:47.875Z,19.67
2018-02-19T09:52:15.457Z,19.57
2018-02-19T09:54:43.091Z,21.67
2018-02-19T09:57:10.680Z,20.50
2018-02-19T09:59:38.361Z,20.63
2018-02-19T10:02:05.984Z,20.27
2018-02-19T10:04:33.554Z,18.97
2018-02-19T10:07:01.176Z,19.53
2018-02-19T10:09:28.751Z,19.10
2018-02-19T10:11:56.328Z,21.63
2018-02-19T10:14:23.922Z,19.33
2018-02-19T10:16:52.263Z,18.47
2018-02-19T10:19:19.834Z,18.00
2018-02-19T10:21:47.419Z,19.23
2018-02-19T10:24:15.776Z,19.00
2018-02-19T10:26:43.348Z,18.67
2018-02-19T10:29:10.940Z,21.40
2018-02-19T10:31:38.513Z,18.90
2018-02-19T10:34:06.102Z,23.03
2018-02-19T10:36:34.670Z,19.30
2018-02-19T10:39:02.271Z,18.70
2018-02-19T10:41:29.857Z,20.77
2018-02-19T10:43:58.200Z,19.17
2018-02-19T10:46:25.796Z,19.33
2018-02-19T10:48:54.178Z,19.50
2018-02-19T10:51:21.744Z,18.53
2018-02-19T10:53:49.334Z,20.33
2018-02-19T10:56:16.921Z,18.90
2018-02-19T10:58:44.556Z,19.50
2018-02-19T11:01:12.137Z,17.23
2018-02-19T11:03:39.706Z,18.30
2018-02-19T11:06:07.418Z,19.13
2018-02-19T11:08:35.792Z,19.83
2018-02-19T11:11:03.379Z,17.77
2018-02-19T11:13:30.948Z,18.97
2018-02-19T11:15:58.553Z,16.80
2018-02-19T11:18:26.890Z,17.07
2018-02-19T11:20:54.499Z,18.93
2018-02-19T11:23:22.119Z,18.10
2018-02-19T11:25:49.703Z,19.77
2018-02-19T11:28:18.049Z,19.07
2018-02-19T11:30:45.643Z,18.93
2018-02-19T11:33:13.992Z,17.67
2018-02-19T11:35:41.883Z,18.43
2018-02-19T11:38:10.238Z,16.30
2018-02-19T11:40:37.829Z,17.03
2018-02-19T11:43:06.200Z,17.30
2018-02-19T11:45:34.548Z,17.17
2018-02-19T11:48:02.139Z,16.63
2018-02-19T11:50:30.487Z,17.37
2018-02-19T11:52:58.147Z,17.97
2018-02-19T11:55:25.744Z,17.33
2018-02-19T11:57:54.088Z,16.80
2018-02-19T12:00:21.702Z,16.57
2018-02-19T12:02:49.273Z,15.77
2018-02-19T12:05:16.848Z,42.50
2018-02-19T12:07:44.455Z,31.60
2018-02-19T12:10:12.797Z,17.90
2018-02-19T12:12:40.430Z,17.67
2018-02-19T12:15:07.989Z,17.70
2018-02-19T12:17:35.566Z,18.97
2018-02-19T12:20:03.174Z,17.97
2018-02-19T12:22:31.516Z,17.77
2018-02-19T12:24:59.110Z,16.03
2018-02-19T12:27:26.675Z,17.53
2018-02-19T12:29:55.074Z,16.70
2018-02-19T12:32:22.668Z,15.87
2018-02-19T12:34:50.227Z,19.97
2018-02-19T12:37:17.846Z,17.17
2018-02-19T12:39:46.188Z,18.77
2018-02-19T12:42:13.774Z,18.67
2018-02-19T12:44:42.166Z,20.23
2018-02-19T12:47:09.739Z,19.17
2018-02-19T12:49:37.326Z,20.47
2018-02-19T12:52:04.894Z,18.40
2018-02-19T12:54:32.491Z,17.07
2018-02-19T12:57:00.839Z,20.13
2018-02-19T12:59:28.454Z,17.83
2018-02-19T13:01:56.064Z,16.87
2018-02-19T13:04:23.683Z,17.30
2018-02-19T13:06:51.373Z,16.03
2018-02-19T13:09:18.970Z,19.40
2018-02-19T13:11:46.582Z,18.00
2018-02-19T13:14:14.168Z,17.20
2018-02-19T13:16:41.793Z,17.00
2018-02-19T13:19:09.367Z,19.90
2018-02-19T13:21:36.933Z,18.00
2018-02-19T13:24:04.541Z,16.03
2018-02-19T13:26:32.876Z,16.73
2018-02-19T13:29:00.442Z,16.67
2018-02-19T13:31:28.051Z,17.63
2018-02-19T13:33:55.632Z,19.10
2018-02-19T13:36:23.222Z,17.60
2018-02-19T13:38:50.819Z,17.50
2018-02-19T13:41:19.204Z,18.37
2018-02-19T13:43:47.541Z,17.60
2018-02-19T13:46:15.111Z,19.30
2018-02-19T13:48:42.767Z,19.53
2018-02-19T13:51:10.340Z,17.20
2018-02-19T13:53:37.963Z,18.70
2018-02-19T13:56:05.554Z,16.90
2018-02-19T13:58:33.132Z,18.70
2018-02-19T14:01:01.494Z,17.43
2018-02-19T14:03:29.063Z,17.40
2018-02-19T14:05:56.693Z,17.87
2018-02-19T14:08:24.279Z,18.50
2018-02-19T14:10:51.884Z,19.53
2018-02-19T14:13:19.457Z,16.20
2018-02-19T14:15:47.024Z,20.20
2018-02-19T14:18:14.641Z,18.47
2018-02-19T14:20:42.962Z,18.60
2018-02-19T14:23:10.524Z,18.50
2018-02-19T14:25:38.921Z,19.90
2018-02-19T14:28:06.490Z,19.60
2018-02-19T14:30:34.060Z,20.70
2018-02-19T14:33:01.656Z,21.00
2018-02-19T14:35:29.227Z,21.37
2018-02-19T14:37:56.810Z,20.77
2018-02-19T14:40:25.177Z,19.80
2018-02-19T14:42:52.775Z,19.70
2018-02-19T14:45:20.370Z,21.47
2018-02-19T14:47:47.939Z,21.90
2018-02-19T14:50:15.506Z,21.43
2018-02-19T14:52:43.095Z,19.57
2018-02-19T14:55:10.667Z,20.50
2018-02-19T14:57:38.263Z,19.77
2018-02-19T15:00:06.601Z,23.13
2018-02-19T15:02:34.223Z,20.53
2018-02-19T15:05:01.799Z,20.73
2018-02-19T15:07:29.369Z,20.17
2018-02-19T15:09:56.968Z,22.33
2018-02-19T15:12:25.297Z,21.50
2018-02-19T15:14:52.876Z,22.87
2018-02-19T15:17:20.454Z,19.83
2018-02-19T15:19:48.031Z,22.13
2018-02-19T15:22:16.386Z,21.43
2018-02-19T15:24:44.063Z,20.63
2018-02-19T15:27:11.673Z,23.13
2018-02-19T15:29:39.235Z,20.33
2018-02-19T15:32:06.824Z,21.77
2018-02-19T15:34:34.393Z,21.77
2018-02-19T15:37:01.970Z,22.00
2018-02-19T15:39:30.335Z,21.80
2018-02-19T15:41:57.925Z,22.30
2018-02-19T15:44:25.506Z,20.70
2018-02-19T15:46:53.078Z,20.23
2018-02-19T15:49:20.698Z,21.20
2018-02-19T15:51:49.059Z,22.20
2018-02-19T15:54:17.395Z,20.77
2018-02-19T15:56:45.004Z,20.87
2018-02-19T15:59:13.352Z,20.80
2018-02-19T16:01:40.935Z,20.80
2018-02-19T16:04:09.304Z,20.70
2018-02-19T16:06:36.858Z,21.30
2018-02-19T16:09:04.443Z,23.40
2018-02-19T16:11:32.805Z,24.60
2018-02-19T16:14:00.371Z,21.40
2018-02-19T16:16:28.737Z,22.70
2018-02-19T16:18:56.299Z,20.30
2018-02-19T16:21:23.863Z,19.70
2018-02-19T16:23:51.454Z,20.90
2018-02-19T16:26:19.062Z,22.60
2018-02-19T16:28:46.641Z,21.13
2018-02-19T16:31:14.213Z,20.20
2018-02-19T16:33:42.566Z,22.80
2018-02-19T16:36:10.149Z,19.93
2018-02-19T16:38:38.527Z,20.67
2018-02-19T16:41:06.875Z,21.50
2018-02-19T16:43:34.456Z,24.90
2018-02-19T16:46:02.029Z,21.87
2018-02-19T16:48:30.366Z,21.37
2018-02-19T16:50:57.957Z,22.30
2018-02-19T16:53:25.546Z,21.60
2018-02-19T16:55:53.156Z,22.03
2018-02-19T16:58:20.722Z,21.63
2018-02-19T17:00:48.297Z,25.00
2018-02-19T17:03:15.887Z,21.10
2018-02-19T17:05:43.463Z,24.60
2018-02-19T17:08:11.064Z,23.47
2018-02-19T17:10:38.630Z,23.97
2018-02-19T17:13:06.219Z,22.73
2018-02-19T17:15:33.824Z,22.13
2018-02-19T17:18:01.395Z,20.97
2018-02-19T17:20:28.972Z,23.80
2018-02-19T17:22:56.562Z,23.40
2018-02-19T17:25:24.120Z,24.30
2018-02-19T17:27:51.726Z,23.03
2018-02-19T17:30:19.293Z,24.30
2018-02-19T17:32:46.907Z,22.27
2018-02-19T17:35:14.984Z,24.00
2018-02-19T17:37:42.561Z,23.67
2018-02-19T17:40:10.172Z,24.17
2018-02-19T17:42:37.755Z,23.47
2018-02-19T17:45:05.336Z,21.37
2018-02-19T17:47:32.941Z,24.47
2018-02-19T17:50:01.290Z,23.40
2018-02-19T17:52:28.877Z,24.17
2018-02-19T17:54:56.467Z,23.53
2018-02-19T17:57:24.810Z,25.00
2018-02-19T17:59:52.395Z,24.53
2018-02-19T18:02:20.738Z,24.97
2018-02-19T18:04:48.406Z,25.80
2018-02-19T18:07:15.968Z,23.40
2018-02-19T18:09:43.532Z,23.83
2018-02-19T18:12:11.138Z,25.07
2018-02-19T18:14:38.723Z,23.20
2018-02-19T18:17:06.320Z,26.70
2018-02-19T18:19:33.887Z,23.83
2018-02-19T18:22:01.463Z,23.00
2018-02-19T18:24:29.842Z,23.37
2018-02-19T18:26:58.179Z,23.17
2018-02-19T18:29:25.766Z,22.87
2018-02-19T18:31:53.318Z,23.77
2018-02-19T18:34:20.903Z,24.90
2018-02-19T18:36:48.475Z,27.33
2018-02-19T18:39:16.112Z,22.03
2018-02-19T18:41:44.448Z,23.37
2018-02-19T18:44:12.039Z,24.30
2018-02-19T18:46:39.601Z,23.80
2018-02-19T18:49:07.158Z,25.10
2018-02-19T18:51:34.808Z,25.97
2018-02-19T18:54:02.394Z,24.77
2018-02-19T18:56:30.712Z,21.30
2018-02-19T18:58:58.291Z,23.20
2018-02-19T19:01:25.903Z,23.23
2018-02-19T19:03:53.464Z,24.83
2018-02-19T19:06:21.125Z,30.90
2018-02-19T19:09:00.575Z,26.00
2018-02-19T19:11:28.183Z,26.53
2018-02-19T19:13:55.745Z,28.00
2018-02-19T19:16:23.304Z,23.60
2018-02-19T19:18:50.904Z,23.53
2018-02-19T19:21:18.490Z,23.10
2018-02-19T19:23:46.120Z,26.60
2018-02-19T19:26:14.463Z,26.00
2018-02-19T19:28:42.027Z,29.03
2018-02-19T19:31:09.635Z,27.63
2018-02-19T19:33:37.207Z,26.97
2018-02-19T19:36:04.802Z,28.83
2018-02-19T19:38:32.386Z,27.60
2018-02-19T19:41:00.764Z,27.90
2018-02-19T19:43:29.115Z,26.70
2018-02-19T19:45:56.694Z,25.53
2018-02-19T19:48:24.293Z,25.67
2018-02-19T19:50:51.858Z,27.20
2018-02-19T19:53:19.429Z,24.03
2018-02-19T19:55:47.046Z,23.53
2018-02-19T19:58:15.373Z,23.60
2018-02-19T20:00:42.985Z,23.27
2018-02-19T20:03:10.553Z,23.17
2018-02-19T20:05:38.892Z,24.17
2018-02-19T20:08:06.528Z,25.40
2018-02-19T20:10:34.098Z,25.37
2018-02-19T20:13:01.669Z,22.90
2018-02-19T20:15:29.279Z,24.77
2018-02-19T20:17:56.860Z,24.27
2018-02-19T20:20:24.474Z,25.93
2018-02-19T20:22:52.039Z,27.37
2018-02-19T20:25:20.377Z,27.10
2018-02-19T20:27:48.001Z,27.70
2018-02-19T20:30:15.573Z,25.60
2018-02-19T20:32:43.174Z,24.17
2018-02-19T20:35:11.549Z,25.53
2018-02-19T20:37:39.135Z,23.83
2018-02-19T20:40:07.463Z,25.00
2018-02-19T20:42:35.055Z,24.83
2018-02-19T20:45:02.644Z,26.27
2018-02-19T20:47:31.014Z,26.90
2018-02-19T20:49:59.354Z,26.13
2018-02-19T20:52:26.951Z,25.63
2018-02-19T20:54:55.287Z,27.27
2018-02-19T20:57:22.913Z,26.07
2018-02-19T20:59:50.487Z,25.10
2018-02-19T21:02:18.059Z,26.37
2018-02-19T21:04:45.712Z,26.10
2018-02-19T21:07:13.287Z,26.17
2018-02-19T21:09:40.939Z,28.43
2018-02-19T21:12:08.495Z,28.40
2018-02-19T21:14:36.114Z,40.40
2018-02-19T21:17:04.447Z,33.70
2018-02-19T21:19:32.019Z,28.10
2018-02-19T21:21:59.636Z,31.67
2018-02-19T21:24:27.207Z,40.30
2018-02-19T21:26:54.800Z,37.27
2018-02-19T21:29:22.404Z,36.83
2018-02-19T21:31:49.973Z,31.27
2018-02-19T21:34:17.578Z,31.97
2018-02-19T21:36:45.191Z,31.10
2018-02-19T21:39:12.838Z,27.00
2018-02-19T21:41:41.171Z,29.43
2018-02-19T21:44:08.727Z,30.00
2018-02-19T21:46:36.315Z,34.60
2018-02-19T21:49:03.881Z,41.00
2018-02-19T21:51:31.512Z,33.43
2018-02-19T21:53:59.080Z,27.77
2018-02-19T21:56:26.643Z,27.33
2018-02-19T21:58:54.242Z,27.83
2018-02-19T22:01:22.586Z,29.77
2018-02-19T22:03:50.182Z,28.10
2018-02-19T22:06:18.575Z,30.20
2018-02-19T22:08:46.134Z,30.00
2018-02-19T22:11:13.701Z,28.57
2018-02-19T22:13:41.332Z,27.27
2018-02-19T22:16:09.661Z,28.53
2018-02-19T22:18:37.292Z,28.70
2018-02-19T22:21:04.858Z,29.00
2018-02-19T22:23:32.438Z,26.90
2018-02-19T22:26:00.030Z,26.50
2018-02-19T22:28:27.606Z,28.80
2018-02-19T22:30:56.009Z,28.57
2018-02-19T22:33:23.568Z,26.53
2018-02-19T22:35:51.136Z,31.17
2018-02-19T22:38:18.774Z,30.80
2018-02-19T22:40:47.114Z,31.20
2018-02-19T22:43:14.684Z,28.63
2018-02-19T22:45:42.300Z,31.43
2018-02-19T22:48:09.917Z,27.70
2018-02-19T22:50:37.501Z,28.07
2018-02-19T22:53:06.842Z,28.30
2018-02-19T22:55:34.467Z,27.50
2018-02-19T22:58:02.989Z,27.00
2018-02-19T23:00:30.540Z,28.17
2018-02-19T23:02:58.248Z,28.80
2018-02-19T23:05:25.848Z,30.67
2018-02-19T23:07:53.461Z,30.47
2018-02-19T23:10:21.040Z,31.13
2018-02-19T23:12:49.385Z,26.40
2018-02-19T23:15:17.016Z,26.10
2018-02-19T23:17:44.588Z,28.90
2018-02-19T23:20:12.923Z,27.57
2018-02-19T23:22:41.311Z,28.60
2018-02-19T23:25:08.884Z,26.33
2018-02-19T23:27:36.453Z,25.77
2018-02-19T23:30:04.077Z,28.53
2018-02-19T23:32:31.676Z,27.30
2018-02-19T23:35:02.440Z,26.77
2018-02-19T23:37:26.953Z,27.50
2018-02-19T23:39:54.561Z,27.60
2018-02-19T23:42:22.139Z,27.67
2018-02-19T23:44:49.754Z,28.67
2018-02-19T23:47:17.314Z,27.23
2018-02-19T23:49:44.915Z,26.30
2018-02-19T23:52:12.537Z,26.67
2018-02-19T23:54:40.103Z,28.20
2018-02-19T23:57:07.693Z,26.97
2018-02-19T23:59:35.303Z,27.63
